sensor_id;sensor_type;location;lat;lon;timestamp;P1;durP1;ratioP1;P2;durP2;ratioP2
83190;SDS011;73087;49.924;22.080;2023-10-08T00:00:00;1.40;;;1.10;;
83190;SDS011;73087;49.924;22.080;2023-10-08T00:01:03;1.65;;;1.10;;
83190;SDS011;73087;49.924;22.080;2023-10-08T00:02:04;3.60;;;1.40;;
83190;SDS011;73087;49.924;22.080;2023-10-08T00:03:05;3.20;;;1.30;;
83190;SDS011;73087;49.924;22.080;2023-10-08T00:04:05;1.90;;;1.20;;
83190;SDS011;73087;49.924;22.080;2023-10-08T00:05:06;2.28;;;1.10;;
83190;SDS011;73087;49.924;22.080;2023-10-08T00:06:07;1.88;;;1.40;;
83190;SDS011;73087;49.924;22.080;2023-10-08T00:07:08;2.17;;;1.38;;
83190;SDS011;73087;49.924;22.080;2023-10-08T00:08:08;2.17;;;1.33;;
83190;SDS011;73087;49.924;22.080;2023-10-08T00:09:09;3.53;;;1.33;;
83190;SDS011;73087;49.924;22.080;2023-10-08T00:10:10;4.10;;;1.40;;
83190;SDS011;73087;49.924;22.080;2023-10-08T00:11:10;1.92;;;1.55;;
83190;SDS011;73087;49.924;22.080;2023-10-08T00:12:11;2.25;;;1.40;;
83190;SDS011;73087;49.924;22.080;2023-10-08T00:13:12;3.00;;;1.65;;
83190;SDS011;73087;49.924;22.080;2023-10-08T00:14:13;3.58;;;1.70;;
83190;SDS011;73087;49.924;22.080;2023-10-08T00:15:13;4.03;;;1.50;;
83190;SDS011;73087;49.924;22.080;2023-10-08T00:16:16;4.53;;;1.60;;
83190;SDS011;73087;49.924;22.080;2023-10-08T00:17:16;9.25;;;2.53;;
83190;SDS011;73087;49.924;22.080;2023-10-08T00:18:17;1.65;;;1.30;;
83190;SDS011;73087;49.924;22.080;2023-10-08T00:19:18;1.52;;;1.10;;
83190;SDS011;73087;49.924;22.080;2023-10-08T00:20:18;2.60;;;1.45;;
83190;SDS011;73087;49.924;22.080;2023-10-08T00:21:19;2.47;;;1.20;;
83190;SDS011;73087;49.924;22.080;2023-10-08T00:22:21;3.75;;;1.33;;
83190;SDS011;73087;49.924;22.080;2023-10-08T00:23:22;2.17;;;1.45;;
83190;SDS011;73087;49.924;22.080;2023-10-08T00:24:22;5.35;;;1.95;;
83190;SDS011;73087;49.924;22.080;2023-10-08T00:25:23;2.22;;;1.50;;
83190;SDS011;73087;49.924;22.080;2023-10-08T00:26:23;2.65;;;1.60;;
83190;SDS011;73087;49.924;22.080;2023-10-08T00:27:24;3.28;;;1.20;;
83190;SDS011;73087;49.924;22.080;2023-10-08T00:28:25;2.92;;;1.58;;
83190;SDS011;73087;49.924;22.080;2023-10-08T00:29:25;3.13;;;1.52;;
83190;SDS011;73087;49.924;22.080;2023-10-08T00:30:26;3.55;;;1.80;;
83190;SDS011;73087;49.924;22.080;2023-10-08T00:31:28;3.03;;;1.40;;
83190;SDS011;73087;49.924;22.080;2023-10-08T00:32:28;4.88;;;1.70;;
83190;SDS011;73087;49.924;22.080;2023-10-08T00:33:29;2.65;;;1.60;;
83190;SDS011;73087;49.924;22.080;2023-10-08T00:34:29;2.05;;;1.50;;
83190;SDS011;73087;49.924;22.080;2023-10-08T00:35:30;3.67;;;1.80;;
83190;SDS011;73087;49.924;22.080;2023-10-08T00:36:31;7.35;;;2.05;;
83190;SDS011;73087;49.924;22.080;2023-10-08T00:37:31;3.72;;;2.05;;
83190;SDS011;73087;49.924;22.080;2023-10-08T00:38:32;4.07;;;2.08;;
83190;SDS011;73087;49.924;22.080;2023-10-08T00:39:32;4.07;;;2.25;;
83190;SDS011;73087;49.924;22.080;2023-10-08T00:40:36;4.50;;;2.20;;
83190;SDS011;73087;49.924;22.080;2023-10-08T00:41:36;3.78;;;2.15;;
83190;SDS011;73087;49.924;22.080;2023-10-08T00:42:37;3.53;;;2.00;;
83190;SDS011;73087;49.924;22.080;2023-10-08T00:43:37;3.78;;;2.10;;
83190;SDS011;73087;49.924;22.080;2023-10-08T00:44:38;3.45;;;2.00;;
83190;SDS011;73087;49.924;22.080;2023-10-08T00:45:38;3.60;;;2.30;;
83190;SDS011;73087;49.924;22.080;2023-10-08T00:46:41;3.67;;;2.25;;
83190;SDS011;73087;49.924;22.080;2023-10-08T00:47:43;3.28;;;2.10;;
83190;SDS011;73087;49.924;22.080;2023-10-08T00:48:44;2.80;;;1.80;;
83190;SDS011;73087;49.924;22.080;2023-10-08T00:49:45;3.97;;;2.00;;
83190;SDS011;73087;49.924;22.080;2023-10-08T00:50:46;4.45;;;1.42;;
83190;SDS011;73087;49.924;22.080;2023-10-08T00:51:46;1.98;;;1.27;;
83190;SDS011;73087;49.924;22.080;2023-10-08T00:52:48;1.70;;;1.10;;
83190;SDS011;73087;49.924;22.080;2023-10-08T00:53:49;1.77;;;1.17;;
83190;SDS011;73087;49.924;22.080;2023-10-08T00:54:54;1.70;;;1.10;;
83190;SDS011;73087;49.924;22.080;2023-10-08T00:55:54;1.23;;;0.90;;
83190;SDS011;73087;49.924;22.080;2023-10-08T00:56:55;3.58;;;1.10;;
83190;SDS011;73087;49.924;22.080;2023-10-08T00:57:57;1.30;;;0.80;;
83190;SDS011;73087;49.924;22.080;2023-10-08T00:58:58;1.92;;;1.00;;
83190;SDS011;73087;49.924;22.080;2023-10-08T00:59:59;1.42;;;0.88;;
83190;SDS011;73087;49.924;22.080;2023-10-08T01:00:59;1.48;;;1.10;;
83190;SDS011;73087;49.924;22.080;2023-10-08T01:02:01;1.80;;;1.10;;
83190;SDS011;73087;49.924;22.080;2023-10-08T01:03:02;2.03;;;0.98;;
83190;SDS011;73087;49.924;22.080;2023-10-08T01:04:04;1.50;;;0.90;;
83190;SDS011;73087;49.924;22.080;2023-10-08T01:05:05;1.05;;;0.80;;
83190;SDS011;73087;49.924;22.080;2023-10-08T01:06:06;1.52;;;0.93;;
83190;SDS011;73087;49.924;22.080;2023-10-08T01:07:07;1.73;;;1.08;;
83190;SDS011;73087;49.924;22.080;2023-10-08T01:08:07;2.08;;;0.95;;
83190;SDS011;73087;49.924;22.080;2023-10-08T01:09:09;2.00;;;1.02;;
83190;SDS011;73087;49.924;22.080;2023-10-08T01:10:09;1.38;;;0.80;;
83190;SDS011;73087;49.924;22.080;2023-10-08T01:11:16;1.33;;;0.90;;
83190;SDS011;73087;49.924;22.080;2023-10-08T01:12:17;2.55;;;0.90;;
83190;SDS011;73087;49.924;22.080;2023-10-08T01:13:19;2.15;;;0.98;;
83190;SDS011;73087;49.924;22.080;2023-10-08T01:14:19;1.48;;;0.80;;
83190;SDS011;73087;49.924;22.080;2023-10-08T01:15:20;1.27;;;0.90;;
83190;SDS011;73087;49.924;22.080;2023-10-08T01:16:21;1.23;;;0.90;;
83190;SDS011;73087;49.924;22.080;2023-10-08T01:17:23;1.58;;;0.90;;
83190;SDS011;73087;49.924;22.080;2023-10-08T01:18:24;1.40;;;0.77;;
83190;SDS011;73087;49.924;22.080;2023-10-08T01:19:24;0.80;;;0.60;;
83190;SDS011;73087;49.924;22.080;2023-10-08T01:20:25;1.38;;;0.60;;
83190;SDS011;73087;49.924;22.080;2023-10-08T01:21:28;1.17;;;0.73;;
83190;SDS011;73087;49.924;22.080;2023-10-08T01:22:30;1.55;;;0.60;;
83190;SDS011;73087;49.924;22.080;2023-10-08T01:23:30;1.08;;;0.68;;
83190;SDS011;73087;49.924;22.080;2023-10-08T01:24:31;0.80;;;0.60;;
83190;SDS011;73087;49.924;22.080;2023-10-08T01:25:32;1.13;;;0.70;;
83190;SDS011;73087;49.924;22.080;2023-10-08T01:26:32;1.20;;;0.68;;
83190;SDS011;73087;49.924;22.080;2023-10-08T01:27:33;1.63;;;0.60;;
83190;SDS011;73087;49.924;22.080;2023-10-08T01:28:34;0.80;;;0.60;;
83190;SDS011;73087;49.924;22.080;2023-10-08T01:29:34;1.23;;;0.65;;
83190;SDS011;73087;49.924;22.080;2023-10-08T01:30:35;1.55;;;0.52;;
83190;SDS011;73087;49.924;22.080;2023-10-08T01:31:35;0.90;;;0.60;;
83190;SDS011;73087;49.924;22.080;2023-10-08T01:32:36;1.30;;;0.80;;
83190;SDS011;73087;49.924;22.080;2023-10-08T01:33:36;0.90;;;0.70;;
83190;SDS011;73087;49.924;22.080;2023-10-08T01:34:37;1.02;;;0.60;;
83190;SDS011;73087;49.924;22.080;2023-10-08T01:35:38;0.88;;;0.57;;
83190;SDS011;73087;49.924;22.080;2023-10-08T01:36:39;1.00;;;0.65;;
83190;SDS011;73087;49.924;22.080;2023-10-08T01:37:41;1.10;;;0.65;;
83190;SDS011;73087;49.924;22.080;2023-10-08T01:38:42;0.82;;;0.65;;
83190;SDS011;73087;49.924;22.080;2023-10-08T01:39:42;1.15;;;0.70;;
83190;SDS011;73087;49.924;22.080;2023-10-08T01:40:43;1.25;;;0.70;;
83190;SDS011;73087;49.924;22.080;2023-10-08T01:41:44;1.73;;;0.65;;
83190;SDS011;73087;49.924;22.080;2023-10-08T01:42:45;0.57;;;0.50;;
83190;SDS011;73087;49.924;22.080;2023-10-08T01:43:45;1.60;;;0.60;;
83190;SDS011;73087;49.924;22.080;2023-10-08T01:44:46;1.02;;;0.60;;
83190;SDS011;73087;49.924;22.080;2023-10-08T01:45:48;0.50;;;0.40;;
83190;SDS011;73087;49.924;22.080;2023-10-08T01:46:48;1.02;;;0.63;;
83190;SDS011;73087;49.924;22.080;2023-10-08T01:47:49;0.52;;;0.43;;
83190;SDS011;73087;49.924;22.080;2023-10-08T01:48:49;0.90;;;0.70;;
83190;SDS011;73087;49.924;22.080;2023-10-08T01:49:50;1.02;;;0.70;;
83190;SDS011;73087;49.924;22.080;2023-10-08T01:50:53;0.88;;;0.68;;
83190;SDS011;73087;49.924;22.080;2023-10-08T01:51:54;1.33;;;0.75;;
83190;SDS011;73087;49.924;22.080;2023-10-08T01:52:56;1.15;;;0.70;;
83190;SDS011;73087;49.924;22.080;2023-10-08T01:53:56;1.60;;;0.75;;
83190;SDS011;73087;49.924;22.080;2023-10-08T01:54:57;1.35;;;0.70;;
83190;SDS011;73087;49.924;22.080;2023-10-08T01:55:57;1.08;;;0.70;;
83190;SDS011;73087;49.924;22.080;2023-10-08T01:56:58;1.25;;;0.70;;
83190;SDS011;73087;49.924;22.080;2023-10-08T01:57:59;0.70;;;0.52;;
83190;SDS011;73087;49.924;22.080;2023-10-08T01:58:59;1.00;;;0.70;;
83190;SDS011;73087;49.924;22.080;2023-10-08T02:00:00;1.58;;;0.70;;
83190;SDS011;73087;49.924;22.080;2023-10-08T02:01:00;1.25;;;0.88;;
83190;SDS011;73087;49.924;22.080;2023-10-08T02:02:01;1.40;;;0.80;;
83190;SDS011;73087;49.924;22.080;2023-10-08T02:03:01;1.65;;;0.80;;
83190;SDS011;73087;49.924;22.080;2023-10-08T02:04:02;2.20;;;0.80;;
83190;SDS011;73087;49.924;22.080;2023-10-08T02:05:02;1.27;;;0.90;;
83190;SDS011;73087;49.924;22.080;2023-10-08T02:06:03;1.20;;;1.05;;
83190;SDS011;73087;49.924;22.080;2023-10-08T02:07:05;1.83;;;1.10;;
83190;SDS011;73087;49.924;22.080;2023-10-08T02:08:07;1.27;;;0.98;;
83190;SDS011;73087;49.924;22.080;2023-10-08T02:09:08;2.28;;;0.93;;
83190;SDS011;73087;49.924;22.080;2023-10-08T02:10:09;1.55;;;0.90;;
83190;SDS011;73087;49.924;22.080;2023-10-08T02:11:10;5.18;;;1.00;;
83190;SDS011;73087;49.924;22.080;2023-10-08T02:12:10;1.17;;;0.70;;
83190;SDS011;73087;49.924;22.080;2023-10-08T02:13:11;1.38;;;0.90;;
83190;SDS011;73087;49.924;22.080;2023-10-08T02:14:11;1.63;;;0.80;;
83190;SDS011;73087;49.924;22.080;2023-10-08T02:15:12;1.13;;;0.80;;
83190;SDS011;73087;49.924;22.080;2023-10-08T02:16:17;2.47;;;0.90;;
83190;SDS011;73087;49.924;22.080;2023-10-08T02:17:18;0.90;;;0.70;;
83190;SDS011;73087;49.924;22.080;2023-10-08T02:18:18;1.08;;;0.70;;
83190;SDS011;73087;49.924;22.080;2023-10-08T02:19:19;1.08;;;0.60;;
83190;SDS011;73087;49.924;22.080;2023-10-08T02:20:20;0.88;;;0.70;;
83190;SDS011;73087;49.924;22.080;2023-10-08T02:21:20;0.95;;;0.70;;
83190;SDS011;73087;49.924;22.080;2023-10-08T02:22:21;1.08;;;0.57;;
83190;SDS011;73087;49.924;22.080;2023-10-08T02:23:23;1.02;;;0.70;;
83190;SDS011;73087;49.924;22.080;2023-10-08T02:24:24;0.80;;;0.60;;
83190;SDS011;73087;49.924;22.080;2023-10-08T02:25:25;1.65;;;0.60;;
83190;SDS011;73087;49.924;22.080;2023-10-08T02:26:26;1.70;;;0.70;;
83190;SDS011;73087;49.924;22.080;2023-10-08T02:27:27;1.13;;;0.80;;
83190;SDS011;73087;49.924;22.080;2023-10-08T02:28:27;0.95;;;0.68;;
83190;SDS011;73087;49.924;22.080;2023-10-08T02:29:28;1.65;;;1.10;;
83190;SDS011;73087;49.924;22.080;2023-10-08T02:30:30;1.52;;;1.00;;
83190;SDS011;73087;49.924;22.080;2023-10-08T02:31:30;2.05;;;1.00;;
83190;SDS011;73087;49.924;22.080;2023-10-08T02:32:31;1.17;;;0.90;;
83190;SDS011;73087;49.924;22.080;2023-10-08T02:33:31;1.30;;;0.90;;
83190;SDS011;73087;49.924;22.080;2023-10-08T02:34:32;1.48;;;1.00;;
83190;SDS011;73087;49.924;22.080;2023-10-08T02:35:32;3.78;;;1.00;;
83190;SDS011;73087;49.924;22.080;2023-10-08T02:36:33;1.50;;;1.10;;
83190;SDS011;73087;49.924;22.080;2023-10-08T02:37:34;1.20;;;0.90;;
83190;SDS011;73087;49.924;22.080;2023-10-08T02:38:36;2.53;;;1.00;;
83190;SDS011;73087;49.924;22.080;2023-10-08T02:39:36;1.70;;;0.93;;
83190;SDS011;73087;49.924;22.080;2023-10-08T02:40:37;1.35;;;1.00;;
83190;SDS011;73087;49.924;22.080;2023-10-08T02:41:39;1.85;;;1.10;;
83190;SDS011;73087;49.924;22.080;2023-10-08T02:42:40;1.63;;;0.90;;
83190;SDS011;73087;49.924;22.080;2023-10-08T02:43:40;1.50;;;1.10;;
83190;SDS011;73087;49.924;22.080;2023-10-08T02:44:41;1.85;;;0.98;;
83190;SDS011;73087;49.924;22.080;2023-10-08T02:45:42;1.42;;;0.90;;
83190;SDS011;73087;49.924;22.080;2023-10-08T02:46:43;1.77;;;1.00;;
83190;SDS011;73087;49.924;22.080;2023-10-08T02:47:45;1.42;;;1.02;;
83190;SDS011;73087;49.924;22.080;2023-10-08T02:48:47;3.60;;;1.05;;
83190;SDS011;73087;49.924;22.080;2023-10-08T02:49:47;1.95;;;1.27;;
83190;SDS011;73087;49.924;22.080;2023-10-08T02:50:48;1.63;;;1.10;;
83190;SDS011;73087;49.924;22.080;2023-10-08T02:51:50;1.48;;;1.08;;
83190;SDS011;73087;49.924;22.080;2023-10-08T02:52:52;1.63;;;1.10;;
83190;SDS011;73087;49.924;22.080;2023-10-08T02:53:54;1.42;;;1.05;;
83190;SDS011;73087;49.924;22.080;2023-10-08T02:54:55;1.70;;;1.00;;
83190;SDS011;73087;49.924;22.080;2023-10-08T02:55:55;2.08;;;1.15;;
83190;SDS011;73087;49.924;22.080;2023-10-08T02:56:56;1.25;;;0.93;;
83190;SDS011;73087;49.924;22.080;2023-10-08T02:57:57;2.35;;;1.10;;
83190;SDS011;73087;49.924;22.080;2023-10-08T02:58:57;1.50;;;0.98;;
83190;SDS011;73087;49.924;22.080;2023-10-08T02:59:58;2.80;;;1.05;;
83190;SDS011;73087;49.924;22.080;2023-10-08T03:00:58;1.80;;;1.00;;
83190;SDS011;73087;49.924;22.080;2023-10-08T03:01:59;1.92;;;1.00;;
83190;SDS011;73087;49.924;22.080;2023-10-08T03:03:00;1.33;;;0.90;;
83190;SDS011;73087;49.924;22.080;2023-10-08T03:04:00;1.48;;;1.00;;
83190;SDS011;73087;49.924;22.080;2023-10-08T03:05:01;1.35;;;1.00;;
83190;SDS011;73087;49.924;22.080;2023-10-08T03:06:01;1.05;;;0.80;;
83190;SDS011;73087;49.924;22.080;2023-10-08T03:07:02;1.58;;;1.02;;
83190;SDS011;73087;49.924;22.080;2023-10-08T03:08:03;1.27;;;1.00;;
83190;SDS011;73087;49.924;22.080;2023-10-08T03:09:05;1.40;;;0.82;;
83190;SDS011;73087;49.924;22.080;2023-10-08T03:10:06;1.35;;;1.00;;
83190;SDS011;73087;49.924;22.080;2023-10-08T03:11:08;1.38;;;0.85;;
83190;SDS011;73087;49.924;22.080;2023-10-08T03:12:10;1.40;;;1.08;;
83190;SDS011;73087;49.924;22.080;2023-10-08T03:13:12;1.50;;;0.90;;
83190;SDS011;73087;49.924;22.080;2023-10-08T03:14:12;2.22;;;1.00;;
83190;SDS011;73087;49.924;22.080;2023-10-08T03:15:14;1.73;;;0.80;;
83190;SDS011;73087;49.924;22.080;2023-10-08T03:16:15;2.28;;;0.98;;
83190;SDS011;73087;49.924;22.080;2023-10-08T03:17:16;1.45;;;0.90;;
83190;SDS011;73087;49.924;22.080;2023-10-08T03:18:16;1.15;;;0.70;;
83190;SDS011;73087;49.924;22.080;2023-10-08T03:19:17;1.38;;;1.02;;
83190;SDS011;73087;49.924;22.080;2023-10-08T03:20:18;1.40;;;0.90;;
83190;SDS011;73087;49.924;22.080;2023-10-08T03:21:19;1.77;;;1.00;;
83190;SDS011;73087;49.924;22.080;2023-10-08T03:22:19;5.47;;;1.30;;
83190;SDS011;73087;49.924;22.080;2023-10-08T03:23:20;1.42;;;0.95;;
83190;SDS011;73087;49.924;22.080;2023-10-08T03:24:22;1.30;;;0.80;;
83190;SDS011;73087;49.924;22.080;2023-10-08T03:25:23;1.30;;;0.80;;
83190;SDS011;73087;49.924;22.080;2023-10-08T03:26:24;1.48;;;0.90;;
83190;SDS011;73087;49.924;22.080;2023-10-08T03:27:24;1.42;;;1.00;;
83190;SDS011;73087;49.924;22.080;2023-10-08T03:28:25;1.00;;;0.80;;
83190;SDS011;73087;49.924;22.080;2023-10-08T03:29:26;1.20;;;0.77;;
83190;SDS011;73087;49.924;22.080;2023-10-08T03:30:26;0.88;;;0.70;;
83190;SDS011;73087;49.924;22.080;2023-10-08T03:31:27;1.27;;;0.77;;
83190;SDS011;73087;49.924;22.080;2023-10-08T03:32:27;0.75;;;0.50;;
83190;SDS011;73087;49.924;22.080;2023-10-08T03:33:28;0.63;;;0.32;;
83190;SDS011;73087;49.924;22.080;2023-10-08T03:34:29;0.88;;;0.40;;
83190;SDS011;73087;49.924;22.080;2023-10-08T03:35:29;0.75;;;0.38;;
83190;SDS011;73087;49.924;22.080;2023-10-08T03:36:30;0.47;;;0.30;;
83190;SDS011;73087;49.924;22.080;2023-10-08T03:37:31;0.60;;;0.40;;
83190;SDS011;73087;49.924;22.080;2023-10-08T03:38:31;0.50;;;0.40;;
83190;SDS011;73087;49.924;22.080;2023-10-08T03:39:33;1.60;;;0.55;;
83190;SDS011;73087;49.924;22.080;2023-10-08T03:40:33;0.50;;;0.32;;
83190;SDS011;73087;49.924;22.080;2023-10-08T03:41:34;2.45;;;0.40;;
83190;SDS011;73087;49.924;22.080;2023-10-08T03:42:35;0.77;;;0.40;;
83190;SDS011;73087;49.924;22.080;2023-10-08T03:43:35;0.40;;;0.40;;
83190;SDS011;73087;49.924;22.080;2023-10-08T03:44:36;0.88;;;0.50;;
83190;SDS011;73087;49.924;22.080;2023-10-08T03:45:36;0.65;;;0.50;;
83190;SDS011;73087;49.924;22.080;2023-10-08T03:46:37;0.77;;;0.40;;
83190;SDS011;73087;49.924;22.080;2023-10-08T03:47:38;0.43;;;0.40;;
83190;SDS011;73087;49.924;22.080;2023-10-08T03:48:38;0.40;;;0.40;;
83190;SDS011;73087;49.924;22.080;2023-10-08T03:49:39;0.60;;;0.45;;
83190;SDS011;73087;49.924;22.080;2023-10-08T03:50:39;0.73;;;0.40;;
83190;SDS011;73087;49.924;22.080;2023-10-08T03:51:40;0.52;;;0.52;;
83190;SDS011;73087;49.924;22.080;2023-10-08T03:52:41;0.50;;;0.40;;
83190;SDS011;73087;49.924;22.080;2023-10-08T03:53:41;1.30;;;0.70;;
83190;SDS011;73087;49.924;22.080;2023-10-08T03:54:43;0.50;;;0.35;;
83190;SDS011;73087;49.924;22.080;2023-10-08T03:55:43;1.02;;;0.63;;
83190;SDS011;73087;49.924;22.080;2023-10-08T03:56:45;0.80;;;0.57;;
83190;SDS011;73087;49.924;22.080;2023-10-08T03:57:46;1.92;;;0.65;;
83190;SDS011;73087;49.924;22.080;2023-10-08T03:58:47;2.58;;;0.70;;
83190;SDS011;73087;49.924;22.080;2023-10-08T03:59:47;0.82;;;0.50;;
83190;SDS011;73087;49.924;22.080;2023-10-08T04:00:48;1.40;;;0.60;;
83190;SDS011;73087;49.924;22.080;2023-10-08T04:01:48;1.45;;;0.60;;
83190;SDS011;73087;49.924;22.080;2023-10-08T04:02:49;2.13;;;0.70;;
83190;SDS011;73087;49.924;22.080;2023-10-08T04:03:49;2.22;;;0.60;;
83190;SDS011;73087;49.924;22.080;2023-10-08T04:04:50;0.80;;;0.50;;
83190;SDS011;73087;49.924;22.080;2023-10-08T04:05:50;0.90;;;0.52;;
83190;SDS011;73087;49.924;22.080;2023-10-08T04:06:51;4.10;;;0.73;;
83190;SDS011;73087;49.924;22.080;2023-10-08T04:07:51;2.65;;;0.60;;
83190;SDS011;73087;49.924;22.080;2023-10-08T04:08:52;0.75;;;0.55;;
83190;SDS011;73087;49.924;22.080;2023-10-08T04:09:54;1.33;;;0.50;;
83190;SDS011;73087;49.924;22.080;2023-10-08T04:10:55;2.25;;;0.75;;
83190;SDS011;73087;49.924;22.080;2023-10-08T04:11:55;1.52;;;0.70;;
83190;SDS011;73087;49.924;22.080;2023-10-08T04:12:56;3.30;;;0.82;;
83190;SDS011;73087;49.924;22.080;2023-10-08T04:13:56;1.02;;;0.70;;
83190;SDS011;73087;49.924;22.080;2023-10-08T04:14:57;1.92;;;0.75;;
83190;SDS011;73087;49.924;22.080;2023-10-08T04:15:57;0.70;;;0.50;;
83190;SDS011;73087;49.924;22.080;2023-10-08T04:16:58;1.38;;;0.80;;
83190;SDS011;73087;49.924;22.080;2023-10-08T04:17:58;2.67;;;1.08;;
83190;SDS011;73087;49.924;22.080;2023-10-08T04:18:59;1.77;;;0.70;;
83190;SDS011;73087;49.924;22.080;2023-10-08T04:19:59;6.32;;;0.85;;
83190;SDS011;73087;49.924;22.080;2023-10-08T04:21:00;2.03;;;0.82;;
83190;SDS011;73087;49.924;22.080;2023-10-08T04:22:00;2.95;;;1.15;;
83190;SDS011;73087;49.924;22.080;2023-10-08T04:23:02;2.78;;;0.88;;
83190;SDS011;73087;49.924;22.080;2023-10-08T04:24:04;1.25;;;0.70;;
83190;SDS011;73087;49.924;22.080;2023-10-08T04:25:07;3.63;;;0.80;;
83190;SDS011;73087;49.924;22.080;2023-10-08T04:26:08;3.80;;;0.82;;
83190;SDS011;73087;49.924;22.080;2023-10-08T04:27:08;3.63;;;0.70;;
83190;SDS011;73087;49.924;22.080;2023-10-08T04:28:09;2.15;;;1.00;;
83190;SDS011;73087;49.924;22.080;2023-10-08T04:29:09;1.73;;;0.88;;
83190;SDS011;73087;49.924;22.080;2023-10-08T04:30:10;1.58;;;0.77;;
83190;SDS011;73087;49.924;22.080;2023-10-08T04:31:12;2.83;;;1.20;;
83190;SDS011;73087;49.924;22.080;2023-10-08T04:32:12;2.63;;;0.80;;
83190;SDS011;73087;49.924;22.080;2023-10-08T04:33:13;1.63;;;0.80;;
83190;SDS011;73087;49.924;22.080;2023-10-08T04:34:14;2.10;;;1.00;;
83190;SDS011;73087;49.924;22.080;2023-10-08T04:35:14;1.90;;;0.90;;
83190;SDS011;73087;49.924;22.080;2023-10-08T04:36:15;5.00;;;1.20;;
83190;SDS011;73087;49.924;22.080;2023-10-08T04:37:16;1.73;;;1.00;;
83190;SDS011;73087;49.924;22.080;2023-10-08T04:38:18;3.75;;;0.90;;
83190;SDS011;73087;49.924;22.080;2023-10-08T04:39:20;2.20;;;0.88;;
83190;SDS011;73087;49.924;22.080;2023-10-08T04:40:22;1.50;;;0.90;;
83190;SDS011;73087;49.924;22.080;2023-10-08T04:41:22;2.30;;;1.13;;
83190;SDS011;73087;49.924;22.080;2023-10-08T04:42:23;1.52;;;1.00;;
83190;SDS011;73087;49.924;22.080;2023-10-08T04:43:24;1.83;;;1.00;;
83190;SDS011;73087;49.924;22.080;2023-10-08T04:44:25;2.38;;;0.93;;
83190;SDS011;73087;49.924;22.080;2023-10-08T04:45:25;3.05;;;1.05;;
83190;SDS011;73087;49.924;22.080;2023-10-08T04:46:26;3.20;;;1.02;;
83190;SDS011;73087;49.924;22.080;2023-10-08T04:47:26;3.58;;;1.20;;
83190;SDS011;73087;49.924;22.080;2023-10-08T04:48:27;1.95;;;1.00;;
83190;SDS011;73087;49.924;22.080;2023-10-08T04:49:27;2.50;;;1.20;;
83190;SDS011;73087;49.924;22.080;2023-10-08T04:50:28;2.50;;;1.00;;
83190;SDS011;73087;49.924;22.080;2023-10-08T04:51:28;2.45;;;1.23;;
83190;SDS011;73087;49.924;22.080;2023-10-08T04:52:29;2.20;;;1.35;;
83190;SDS011;73087;49.924;22.080;2023-10-08T04:53:31;2.47;;;1.27;;
83190;SDS011;73087;49.924;22.080;2023-10-08T04:54:33;2.25;;;1.00;;
83190;SDS011;73087;49.924;22.080;2023-10-08T04:55:35;2.00;;;1.10;;
83190;SDS011;73087;49.924;22.080;2023-10-08T04:56:35;2.42;;;1.38;;
83190;SDS011;73087;49.924;22.080;2023-10-08T04:57:36;1.67;;;1.10;;
83190;SDS011;73087;49.924;22.080;2023-10-08T04:58:37;4.07;;;1.10;;
83190;SDS011;73087;49.924;22.080;2023-10-08T04:59:37;3.40;;;1.42;;
83190;SDS011;73087;49.924;22.080;2023-10-08T05:00:38;1.85;;;0.98;;
83190;SDS011;73087;49.924;22.080;2023-10-08T05:01:38;2.30;;;1.00;;
83190;SDS011;73087;49.924;22.080;2023-10-08T05:02:39;2.65;;;1.20;;
83190;SDS011;73087;49.924;22.080;2023-10-08T05:03:39;2.88;;;1.20;;
83190;SDS011;73087;49.924;22.080;2023-10-08T05:04:40;1.45;;;1.08;;
83190;SDS011;73087;49.924;22.080;2023-10-08T05:05:40;2.05;;;1.10;;
83190;SDS011;73087;49.924;22.080;2023-10-08T05:06:41;2.55;;;1.20;;
83190;SDS011;73087;49.924;22.080;2023-10-08T05:07:41;2.95;;;1.10;;
83190;SDS011;73087;49.924;22.080;2023-10-08T05:08:42;3.17;;;1.30;;
83190;SDS011;73087;49.924;22.080;2023-10-08T05:09:44;3.10;;;1.33;;
83190;SDS011;73087;49.924;22.080;2023-10-08T05:10:47;4.15;;;1.23;;
83190;SDS011;73087;49.924;22.080;2023-10-08T05:11:48;2.67;;;1.00;;
83190;SDS011;73087;49.924;22.080;2023-10-08T05:12:52;2.08;;;1.15;;
83190;SDS011;73087;49.924;22.080;2023-10-08T05:13:53;1.80;;;0.88;;
83190;SDS011;73087;49.924;22.080;2023-10-08T05:14:54;1.85;;;1.02;;
83190;SDS011;73087;49.924;22.080;2023-10-08T05:15:55;3.95;;;1.00;;
83190;SDS011;73087;49.924;22.080;2023-10-08T05:16:55;3.80;;;1.10;;
83190;SDS011;73087;49.924;22.080;2023-10-08T05:17:56;1.75;;;1.10;;
83190;SDS011;73087;49.924;22.080;2023-10-08T05:18:56;2.03;;;0.82;;
83190;SDS011;73087;49.924;22.080;2023-10-08T05:19:57;2.50;;;1.00;;
83190;SDS011;73087;49.924;22.080;2023-10-08T05:20:57;2.03;;;0.77;;
83190;SDS011;73087;49.924;22.080;2023-10-08T05:21:58;1.77;;;0.85;;
83190;SDS011;73087;49.924;22.080;2023-10-08T05:22:58;3.80;;;0.80;;
83190;SDS011;73087;49.924;22.080;2023-10-08T05:23:59;2.28;;;0.80;;
83190;SDS011;73087;49.924;22.080;2023-10-08T05:24:59;4.22;;;1.00;;
83190;SDS011;73087;49.924;22.080;2023-10-08T05:26:02;4.70;;;1.13;;
83190;SDS011;73087;49.924;22.080;2023-10-08T05:27:03;2.15;;;0.80;;
83190;SDS011;73087;49.924;22.080;2023-10-08T05:28:05;6.60;;;1.13;;
83190;SDS011;73087;49.924;22.080;2023-10-08T05:29:05;2.38;;;0.80;;
83190;SDS011;73087;49.924;22.080;2023-10-08T05:30:06;3.70;;;0.80;;
83190;SDS011;73087;49.924;22.080;2023-10-08T05:31:07;2.05;;;0.70;;
83190;SDS011;73087;49.924;22.080;2023-10-08T05:32:08;3.63;;;0.77;;
83190;SDS011;73087;49.924;22.080;2023-10-08T05:33:09;1.70;;;0.75;;
83190;SDS011;73087;49.924;22.080;2023-10-08T05:34:09;1.38;;;0.80;;
83190;SDS011;73087;49.924;22.080;2023-10-08T05:35:10;2.47;;;0.80;;
83190;SDS011;73087;49.924;22.080;2023-10-08T05:36:11;2.60;;;0.93;;
83190;SDS011;73087;49.924;22.080;2023-10-08T05:37:11;2.45;;;0.85;;
83190;SDS011;73087;49.924;22.080;2023-10-08T05:38:12;3.33;;;1.17;;
83190;SDS011;73087;49.924;22.080;2023-10-08T05:39:13;3.53;;;2.20;;
83190;SDS011;73087;49.924;22.080;2023-10-08T05:40:14;2.83;;;1.50;;
83190;SDS011;73087;49.924;22.080;2023-10-08T05:41:15;2.90;;;1.20;;
83190;SDS011;73087;49.924;22.080;2023-10-08T05:42:16;2.83;;;1.50;;
83190;SDS011;73087;49.924;22.080;2023-10-08T05:43:17;2.85;;;1.20;;
83190;SDS011;73087;49.924;22.080;2023-10-08T05:44:17;4.18;;;1.70;;
83190;SDS011;73087;49.924;22.080;2023-10-08T05:45:18;3.67;;;1.52;;
83190;SDS011;73087;49.924;22.080;2023-10-08T05:46:18;2.83;;;1.50;;
83190;SDS011;73087;49.924;22.080;2023-10-08T05:47:19;4.22;;;1.98;;
83190;SDS011;73087;49.924;22.080;2023-10-08T05:48:19;3.72;;;1.75;;
83190;SDS011;73087;49.924;22.080;2023-10-08T05:49:20;4.43;;;1.77;;
83190;SDS011;73087;49.924;22.080;2023-10-08T05:50:21;3.85;;;1.35;;
83190;SDS011;73087;49.924;22.080;2023-10-08T05:51:22;6.30;;;2.20;;
83190;SDS011;73087;49.924;22.080;2023-10-08T05:52:23;5.82;;;3.13;;
83190;SDS011;73087;49.924;22.080;2023-10-08T05:53:23;4.90;;;2.53;;
83190;SDS011;73087;49.924;22.080;2023-10-08T05:54:24;4.82;;;2.35;;
83190;SDS011;73087;49.924;22.080;2023-10-08T05:55:25;6.22;;;2.70;;
83190;SDS011;73087;49.924;22.080;2023-10-08T05:56:30;5.78;;;2.65;;
83190;SDS011;73087;49.924;22.080;2023-10-08T05:57:30;6.95;;;2.60;;
83190;SDS011;73087;49.924;22.080;2023-10-08T05:58:31;6.47;;;2.38;;
83190;SDS011;73087;49.924;22.080;2023-10-08T05:59:32;4.60;;;1.90;;
83190;SDS011;73087;49.924;22.080;2023-10-08T06:00:32;3.50;;;1.88;;